Time;durP1;ratioP1;P1;durP2;ratioP2;P2;SDS_P1;SDS_P2;PMS_P1;PMS_P2;Temp;Humidity;BMP_temperature;BMP_pressure;BME280_temperature;BME280_humidity;BME280_pressure;Samples;Min_cycle;Max_cycle;Signal;HPM_P1;HPM_P2
2022/07/27 00:01:25;;;;;;;7.47;1.70;;;16.40;1.00;;;;;;5143342;27;20200;-82
2022/07/27 00:03:51;;;;;;;6.67;1.47;;;16.40;1.00;;;;;;5141387;27;20697;-82
2022/07/27 00:06:17;;;;;;;5.63;1.90;;;16.30;1.00;;;;;;5141872;27;20194;-82
2022/07/27 00:08:42;;;;;;;6.37;1.50;;;16.40;1.00;;;;;;5123878;27;20170;-83
2022/07/27 00:11:17;;;;;;;3.67;1.57;;;16.40;1.00;;;;;;5146795;27;20162;-82
2022/07/27 00:13:44;;;;;;;4.07;1.60;;;16.40;1.00;;;;;;5147828;27;20197;-82
2022/07/27 00:16:11;;;;;;;5.23;1.50;;;16.30;1.00;;;;;;5132711;27;20174;-83
2022/07/27 00:18:40;;;;;;;6.10;1.77;;;16.30;1.00;;;;;;5125464;27;20178;-82
2022/07/27 00:21:06;;;;;;;4.17;1.30;;;16.40;1.00;;;;;;5143406;27;20681;-83
2022/07/27 00:23:34;;;;;;;3.20;1.30;;;16.30;1.00;;;;;;5126455;27;20182;-82
2022/07/27 00:26:01;;;;;;;4.33;1.50;;;16.30;1.00;;;;;;5126364;27;20166;-82
2022/07/27 00:28:27;;;;;;;5.93;1.50;;;16.30;1.00;;;;;;5123438;27;20170;-82
2022/07/27 00:30:53;;;;;;;4.17;1.60;;;16.20;1.00;;;;;;5126059;27;20652;-82
2022/07/27 00:33:18;;;;;;;3.77;1.20;;;16.30;1.00;;;;;;5143677;27;20565;-83
2022/07/27 00:35:44;;;;;;;5.07;1.60;;;16.40;1.00;;;;;;5143606;27;20643;-82
2022/07/27 00:38:11;;;;;;;5.27;1.60;;;16.30;1.00;;;;;;5124013;27;20179;-82
2022/07/27 00:40:37;;;;;;;5.30;1.23;;;16.30;1.00;;;;;;5137109;27;20193;-84
2022/07/27 00:43:03;;;;;;;3.10;1.43;;;16.20;1.00;;;;;;5146052;27;20247;-84
2022/07/27 00:45:29;;;;;;;3.87;1.50;;;16.20;1.00;;;;;;5142962;27;20610;-82
2022/07/27 00:47:55;;;;;;;4.80;1.40;;;16.10;1.00;;;;;;5139443;27;20190;-82
2022/07/27 00:50:21;;;;;;;3.87;1.47;;;16.00;1.00;;;;;;5143427;27;20174;-83
2022/07/27 00:52:48;;;;;;;4.53;1.23;;;15.90;1.00;;;;;;5142523;27;20251;-82
2022/07/27 00:55:14;;;;;;;7.00;1.73;;;15.90;1.00;;;;;;5145592;27;20162;-83
2022/07/27 00:57:41;;;;;;;6.47;1.70;;;15.80;1.00;;;;;;5141195;27;20177;-83
2022/07/27 01:00:07;;;;;;;4.23;1.80;;;15.80;1.00;;;;;;5141717;27;20227;-82
2022/07/27 01:02:33;;;;;;;4.83;1.83;;;15.80;1.00;;;;;;5141135;27;20248;-81
2022/07/27 01:04:58;;;;;;;4.77;1.70;;;15.80;1.00;;;;;;5139790;27;20208;-83
2022/07/27 01:07:25;;;;;;;3.87;1.47;;;15.80;1.00;;;;;;5139758;27;20580;-83
2022/07/27 01:09:56;;;;;;;5.83;1.50;;;15.90;1.00;;;;;;5150350;27;20215;-82
2022/07/27 01:12:24;;;;;;;2.67;1.80;;;15.90;1.00;;;;;;5154338;27;20229;-82
2022/07/27 01:14:51;;;;;;;5.07;1.87;;;15.80;1.00;;;;;;5156249;27;20169;-83
2022/07/27 01:17:19;;;;;;;3.97;1.70;;;15.80;1.00;;;;;;5147456;27;20181;-82
2022/07/27 01:19:46;;;;;;;3.60;1.70;;;15.80;1.00;;;;;;5148396;27;20223;-80
2022/07/27 01:22:12;;;;;;;4.10;1.50;;;15.70;1.00;;;;;;5143370;27;20541;-82
2022/07/27 01:24:38;;;;;;;5.40;1.50;;;15.80;1.00;;;;;;5136888;27;20184;-83
2022/07/27 01:27:05;;;;;;;5.10;1.80;;;15.70;1.00;;;;;;5136728;27;20195;-83
2022/07/27 01:29:32;;;;;;;8.00;2.10;;;15.70;1.00;;;;;;5142080;27;20245;-82
2022/07/27 01:31:58;;;;;;;3.13;1.50;;;15.70;1.00;;;;;;5159646;27;20157;-82
2022/07/27 01:34:24;;;;;;;2.57;1.30;;;15.70;1.00;;;;;;5161341;27;20154;-82
2022/07/27 01:36:50;;;;;;;4.33;1.83;;;15.70;1.00;;;;;;5159038;27;20181;-82
2022/07/27 01:39:17;;;;;;;4.20;1.83;;;15.70;1.00;;;;;;5149790;27;20170;-82
2022/07/27 01:45:05;;;;;;;6.77;1.83;;;15.70;1.00;;;;;;5138580;27;20244;-81
2022/07/27 01:47:30;;;;;;;7.47;1.90;;;15.70;1.00;;;;;;5142818;27;20552;-81
2022/07/27 01:49:57;;;;;;;4.20;1.70;;;15.70;1.00;;;;;;5148413;27;20182;-81
2022/07/27 01:52:22;;;;;;;4.53;1.30;;;15.70;1.00;;;;;;5142578;27;20222;-83
2022/07/27 01:54:48;;;;;;;4.93;1.77;;;15.60;1.00;;;;;;5149005;27;20219;-81
2022/07/27 01:57:15;;;;;;;6.77;1.50;;;15.70;1.00;;;;;;5161829;27;20229;-81
2022/07/27 01:59:40;;;;;;;3.53;1.83;;;16.00;1.00;;;;;;5161360;27;20159;-82
2022/07/27 02:02:06;;;;;;;4.03;1.57;;;15.90;1.00;;;;;;5161143;27;20185;-81
2022/07/27 02:04:32;;;;;;;4.80;1.40;;;15.80;1.00;;;;;;5161437;27;20201;-81
2022/07/27 02:06:57;;;;;;;6.97;2.33;;;15.70;1.00;;;;;;5161597;27;20157;-82
2022/07/27 02:09:26;;;;;;;3.37;1.57;;;15.70;1.00;;;;;;5156425;27;20249;-81
2022/07/27 02:15:21;;;;;;;4.73;1.53;;;15.60;1.00;;;;;;5149882;27;20187;-82
2022/07/27 02:18:30;;;;;;;2.67;1.57;;;15.70;1.00;;;;;;5142552;27;20201;-83
2022/07/27 02:21:15;;;;;;;6.03;1.50;;;15.70;1.00;;;;;;5137669;27;20198;-82
2022/07/27 02:23:56;;;;;;;5.37;1.73;;;15.70;2.20;;;;;;5139771;27;20596;-82
2022/07/27 02:26:21;;;;;;;5.03;1.80;;;15.60;3.70;;;;;;5136168;27;20177;-82
2022/07/27 02:28:47;;;;;;;3.50;1.67;;;15.50;5.50;;;;;;5135513;27;20164;-82
2022/07/27 02:31:13;;;;;;;4.63;1.80;;;15.50;6.60;;;;;;5136325;27;20174;-83
2022/07/27 02:33:39;;;;;;;4.53;1.80;;;15.40;9.10;;;;;;5135540;27;20204;-82
2022/07/27 02:36:05;;;;;;;3.70;1.90;;;15.40;10.70;;;;;;5135912;27;20170;-82
2022/07/27 02:38:30;;;;;;;4.53;1.60;;;15.40;11.10;;;;;;5134961;27;20179;-82
2022/07/27 02:40:56;;;;;;;6.77;2.40;;;15.30;13.30;;;;;;5134854;27;20262;-82
2022/07/27 02:43:22;;;;;;;3.77;1.60;;;15.30;13.70;;;;;;5137698;27;20702;-81
2022/07/27 02:45:48;;;;;;;5.07;2.00;;;15.30;13.40;;;;;;5138157;27;20172;-84
2022/07/27 02:48:13;;;;;;;6.60;2.00;;;15.40;12.20;;;;;;5136328;27;20284;-82
2022/07/27 02:50:39;;;;;;;4.90;1.83;;;15.30;13.40;;;;;;5134804;27;20679;-81
2022/07/27 02:53:05;;;;;;;4.53;1.90;;;15.30;14.20;;;;;;5134462;27;20231;-81
2022/07/27 02:55:30;;;;;;;7.23;2.27;;;15.30;14.90;;;;;;5134545;27;20174;-83
2022/07/27 02:57:56;;;;;;;6.50;1.83;;;15.30;14.60;;;;;;5135884;27;20167;-83
2022/07/27 03:00:22;;;;;;;4.43;2.30;;;15.40;13.90;;;;;;5136589;27;20577;-82
2022/07/27 03:02:48;;;;;;;4.10;1.83;;;15.30;10.10;;;;;;5135611;27;20194;-82
2022/07/27 03:05:14;;;;;;;5.17;2.07;;;15.40;11.50;;;;;;5137851;27;20215;-83
2022/07/27 03:07:40;;;;;;;5.07;2.20;;;15.50;10.20;;;;;;5136088;27;20176;-81
2022/07/27 03:10:06;;;;;;;5.57;2.00;;;15.40;11.80;;;;;;5157238;27;20165;-81
2022/07/27 03:12:32;;;;;;;6.23;2.53;;;15.30;14.10;;;;;;5158147;27;20254;-82
2022/07/27 03:14:58;;;;;;;5.27;1.93;;;15.30;15.70;;;;;;5139492;27;20242;-82
2022/07/27 03:17:23;;;;;;;4.90;2.33;;;15.30;14.60;;;;;;5157316;27;20165;-81
2022/07/27 03:19:49;;;;;;;4.80;2.40;;;15.30;18.30;;;;;;5143141;27;20573;-82
2022/07/27 03:22:15;;;;;;;6.73;2.50;;;15.30;17.40;;;;;;5160948;27;20201;-82
2022/07/27 03:24:41;;;;;;;8.43;2.87;;;15.30;18.60;;;;;;5161820;27;20183;-81
2022/07/27 03:27:06;;;;;;;6.63;2.20;;;15.30;18.10;;;;;;5143975;27;20181;-82
2022/07/27 03:29:33;;;;;;;3.77;2.00;;;15.30;18.40;;;;;;5140809;27;20193;-81
2022/07/27 03:31:59;;;;;;;6.77;2.57;;;15.30;17.80;;;;;;5140445;27;20199;-80
2022/07/27 03:34:25;;;;;;;4.77;2.10;;;15.30;19.80;;;;;;5137848;27;20252;-83
2022/07/27 03:36:50;;;;;;;7.27;2.57;;;15.20;20.80;;;;;;5155959;27;20169;-82
2022/07/27 03:39:16;;;;;;;4.67;2.20;;;15.30;22.50;;;;;;5156241;27;20192;-81
2022/07/27 03:41:42;;;;;;;4.50;2.17;;;15.40;18.00;;;;;;5157431;27;20595;-82
2022/07/27 03:44:08;;;;;;;6.27;2.50;;;15.30;18.00;;;;;;5172052;27;20145;-82
2022/07/27 03:46:33;;;;;;;6.53;2.10;;;15.40;19.40;;;;;;5165695;27;20184;-82
2022/07/27 03:48:59;;;;;;;7.13;2.00;;;15.30;18.10;;;;;;5138856;27;20171;-82
2022/07/27 03:51:25;;;;;;;3.43;1.90;;;15.30;17.60;;;;;;5155760;27;20178;-82
2022/07/27 03:53:51;;;;;;;5.20;1.93;;;15.20;22.60;;;;;;5137798;27;20231;-81
2022/07/27 03:56:17;;;;;;;3.73;1.83;;;15.20;22.40;;;;;;5138149;27;20162;-81
2022/07/27 03:58:43;;;;;;;8.17;2.20;;;15.20;22.60;;;;;;5155905;27;20187;-82
2022/07/27 04:01:08;;;;;;;5.40;2.33;;;15.10;24.50;;;;;;5158609;27;20168;-82
2022/07/27 04:03:34;;;;;;;5.43;1.57;;;15.20;24.50;;;;;;5164735;27;20228;-81
2022/07/27 04:05:59;;;;;;;5.53;2.10;;;15.10;24.60;;;;;;5158173;27;20618;-82
2022/07/27 04:08:25;;;;;;;5.43;1.83;;;14.90;25.60;;;;;;5148705;27;20703;-81
2022/07/27 04:10:51;;;;;;;5.23;1.90;;;15.10;28.20;;;;;;5161810;27;20172;-83
2022/07/27 04:13:19;;;;;;;5.50;1.80;;;15.20;27.20;;;;;;5166356;27;20208;-81
2022/07/27 04:15:45;;;;;;;6.23;1.90;;;15.10;24.70;;;;;;5142399;27;20267;-81
2022/07/27 04:18:10;;;;;;;4.83;2.10;;;15.00;27.40;;;;;;5157314;27;20219;-81
2022/07/27 04:20:36;;;;;;;3.80;1.80;;;15.00;29.80;;;;;;5136026;27;20197;-81
2022/07/27 04:23:02;;;;;;;4.90;1.97;;;15.00;34.60;;;;;;5155946;27;20251;-82
2022/07/27 04:25:28;;;;;;;5.10;2.13;;;14.90;32.30;;;;;;5159659;27;20174;-81
2022/07/27 04:27:53;;;;;;;5.87;2.10;;;14.90;31.90;;;;;;5173780;27;20219;-81
2022/07/27 04:30:20;;;;;;;4.77;2.13;;;14.90;33.70;;;;;;5159866;27;20171;-81
2022/07/27 04:32:49;;;;;;;8.03;2.63;;;15.00;33.50;;;;;;5137737;27;20229;-83
2022/07/27 04:35:19;;;;;;;5.00;2.40;;;15.10;31.60;;;;;;5137093;27;20161;-81
2022/07/27 04:37:45;;;;;;;5.73;2.20;;;15.20;27.40;;;;;;5154922;27;20193;-81
2022/07/27 04:40:11;;;;;;;8.07;2.50;;;15.20;26.00;;;;;;5136783;27;20546;-81
2022/07/27 04:42:37;;;;;;;5.43;2.20;;;15.30;26.20;;;;;;5136038;27;20218;-81
2022/07/27 04:45:03;;;;;;;5.00;2.10;;;15.40;25.00;;;;;;5154564;27;20169;-81
2022/07/27 04:47:29;;;;;;;4.27;1.97;;;15.50;19.60;;;;;;5157937;27;20720;-83
2022/07/27 04:49:54;;;;;;;6.00;2.47;;;15.60;17.30;;;;;;5139403;27;20176;-81
2022/07/27 04:52:20;;;;;;;4.97;2.07;;;15.70;14.80;;;;;;5158429;27;20189;-82
2022/07/27 04:54:51;;;;;;;6.50;2.43;;;15.80;13.30;;;;;;5158622;27;20169;-83
2022/07/27 04:57:16;;;;;;;5.17;2.07;;;15.80;12.10;;;;;;5159386;27;20265;-82
2022/07/27 04:59:42;;;;;;;7.27;2.30;;;15.70;8.80;;;;;;5139828;27;20640;-81
2022/07/27 05:02:08;;;;;;;5.83;2.07;;;15.70;12.70;;;;;;5140140;27;20170;-81
2022/07/27 05:04:33;;;;;;;6.10;2.23;;;15.80;9.50;;;;;;5174313;27;20160;-81
2022/07/27 05:06:59;;;;;;;6.03;2.30;;;15.90;7.30;;;;;;5165518;27;20191;-81
2022/07/27 05:09:25;;;;;;;4.50;2.00;;;15.90;4.50;;;;;;5183418;27;20165;-81
2022/07/27 05:11:51;;;;;;;6.67;2.00;;;15.90;1.00;;;;;;5164330;27;20161;-83
2022/07/27 05:14:16;;;;;;;4.87;2.20;;;15.90;1.70;;;;;;5166523;27;20196;-82
2022/07/27 05:16:45;;;;;;;8.87;2.77;;;15.90;1.60;;;;;;5140379;27;20172;-82
2022/07/27 05:19:11;;;;;;;15.60;3.20;;;16.00;1.00;;;;;;5158535;27;20567;-82
2022/07/27 05:21:37;;;;;;;12.27;2.80;;;16.10;1.00;;;;;;5139712;27;20612;-83
2022/07/27 05:24:02;;;;;;;8.33;2.43;;;16.00;1.00;;;;;;5139808;27;20166;-82
2022/07/27 05:26:29;;;;;;;7.70;2.50;;;15.90;1.00;;;;;;5146939;27;20172;-81
2022/07/27 05:28:55;;;;;;;7.17;2.30;;;15.90;1.00;;;;;;5164266;27;20178;-83
2022/07/27 05:31:20;;;;;;;9.00;2.63;;;15.90;1.00;;;;;;5182103;27;20217;-81
2022/07/27 05:33:49;;;;;;;6.83;2.37;;;15.90;3.70;;;;;;5182718;27;20198;-82
2022/07/27 05:36:16;;;;;;;8.83;2.40;;;15.90;1.00;;;;;;5164971;27;20183;-81
2022/07/27 05:39:01;;;;;;;5.77;2.17;;;16.10;1.00;;;;;;5168770;27;20288;-82
2022/07/27 05:41:58;;;;;;;9.27;2.27;;;16.10;1.00;;;;;;5139859;27;20172;-81
2022/07/27 05:44:24;;;;;;;8.10;2.57;;;16.20;1.00;;;;;;5157913;27;20166;-81
2022/07/27 05:46:50;;;;;;;5.00;1.80;;;16.20;1.00;;;;;;5157682;27;20158;-82
2022/07/27 05:49:16;;;;;;;10.00;2.90;;;16.10;1.00;;;;;;5158006;27;20265;-82
2022/07/27 05:51:42;;;;;;;6.27;2.47;;;16.20;1.00;;;;;;5139371;27;20657;-81
2022/07/27 05:54:08;;;;;;;6.63;2.30;;;16.20;1.00;;;;;;5157883;27;20675;-82
2022/07/27 05:56:34;;;;;;;8.00;2.43;;;16.20;1.00;;;;;;5141063;27;20162;-81
2022/07/27 05:59:00;;;;;;;9.53;2.60;;;16.20;1.00;;;;;;5157857;27;20174;-82
2022/07/27 06:01:26;;;;;;;9.90;2.70;;;16.30;1.00;;;;;;5182070;27;20158;-81
2022/07/27 06:03:52;;;;;;;9.93;3.67;;;16.40;1.00;;;;;;5162672;27;20179;-82
2022/07/27 06:09:05;;;;;;;7.03;2.20;;;16.40;1.00;;;;;;5175105;27;20177;-81
2022/07/27 06:12:01;;;;;;;4.47;1.80;;;16.60;1.00;;;;;;5175208;27;20185;-82
2022/07/27 06:14:37;;;;;;;6.73;2.77;;;16.60;1.00;;;;;;5158671;27;20652;-83
2022/07/27 06:17:12;;;;;;;5.80;2.00;;;16.80;1.00;;;;;;5157618;27;20158;-82
2022/07/27 06:19:38;;;;;;;11.33;2.70;;;16.90;1.00;;;;;;5139019;27;20226;-81
2022/07/27 06:22:05;;;;;;;7.00;2.67;;;16.90;1.00;;;;;;5157519;27;20162;-81
2022/07/27 06:24:32;;;;;;;7.37;2.40;;;16.80;1.00;;;;;;5138521;27;20233;-82
2022/07/27 06:26:58;;;;;;;4.10;2.27;;;16.80;1.00;;;;;;5138958;27;20168;-81
2022/07/27 06:29:23;;;;;;;6.27;1.87;;;17.00;1.00;;;;;;5139523;27;20174;-80
2022/07/27 06:31:50;;;;;;;6.70;2.30;;;17.10;1.00;;;;;;5157941;27;20187;-82
2022/07/27 06:34:16;;;;;;;6.50;2.00;;;17.20;1.00;;;;;;5158356;27;20177;-81
2022/07/27 06:36:44;;;;;;;8.33;1.97;;;17.60;1.00;;;;;;5160898;27;20163;-81
2022/07/27 06:39:10;;;;;;;5.33;1.80;;;17.80;1.00;;;;;;5145529;27;20627;-80
2022/07/27 06:41:38;;;;;;;5.50;1.77;;;17.90;1.00;;;;;;5139138;27;20633;-82
2022/07/27 06:44:06;;;;;;;6.57;2.40;;;18.10;1.00;;;;;;5138393;27;20169;-82
2022/07/27 06:46:31;;;;;;;7.50;1.50;;;18.20;1.00;;;;;;5139503;27;20662;-82
2022/07/27 06:48:57;;;;;;;5.77;1.40;;;18.30;1.00;;;;;;5156785;27;20169;-81
2022/07/27 06:51:23;;;;;;;5.93;1.80;;;18.30;1.00;;;;;;5170859;27;20198;-83
2022/07/27 06:53:53;;;;;;;4.70;1.10;;;18.10;1.00;;;;;;5161221;27;20226;-80
2022/07/27 06:56:20;;;;;;;5.50;1.90;;;17.70;1.00;;;;;;5144509;27;20648;-82
2022/07/27 06:58:48;;;;;;;9.17;1.80;;;17.40;1.00;;;;;;5159383;27;20170;-81
2022/07/27 07:01:14;;;;;;;5.80;1.73;;;17.40;1.00;;;;;;5156624;27;20162;-80
2022/07/27 07:03:40;;;;;;;8.70;1.67;;;17.40;1.00;;;;;;5156953;27;20166;-81
2022/07/27 07:06:05;;;;;;;4.37;1.40;;;17.40;1.00;;;;;;5140044;27;20213;-80
2022/07/27 07:08:31;;;;;;;4.77;1.73;;;17.40;1.00;;;;;;5168238;27;20185;-81
2022/07/27 07:10:57;;;;;;;5.57;1.57;;;17.50;1.00;;;;;;5180498;27;20162;-81
2022/07/27 07:13:26;;;;;;;4.90;1.20;;;17.70;1.00;;;;;;5169456;27;20614;-81
2022/07/27 07:15:55;;;;;;;5.57;1.37;;;17.50;1.00;;;;;;5155718;27;20163;-81
2022/07/27 07:18:36;;;;;;;3.40;1.37;;;17.50;1.00;;;;;;5171978;27;20157;-80
2022/07/27 07:21:02;;;;;;;5.47;1.60;;;17.40;1.00;;;;;;5176501;27;20182;-80
2022/07/27 07:23:29;;;;;;;2.70;1.27;;;17.50;1.00;;;;;;5150400;27;20689;-81
2022/07/27 07:25:55;;;;;;;5.67;1.20;;;17.50;1.00;;;;;;5139403;27;20170;-80
2022/07/27 07:28:21;;;;;;;3.80;1.23;;;17.50;1.00;;;;;;5139118;27;20180;-81
2022/07/27 07:30:48;;;;;;;2.33;1.00;;;17.50;1.00;;;;;;5157178;27;20195;-81
2022/07/27 07:33:14;;;;;;;2.67;1.07;;;17.40;1.00;;;;;;5156319;27;20238;-81
2022/07/27 07:35:41;;;;;;;4.33;1.20;;;17.30;1.00;;;;;;5156655;27;20170;-82
2022/07/27 07:38:06;;;;;;;8.07;1.40;;;17.20;1.00;;;;;;5156988;27;20250;-82
2022/07/27 07:40:32;;;;;;;3.20;1.10;;;17.20;1.00;;;;;;5157156;27;20197;-81
2022/07/27 07:43:03;;;;;;;3.10;1.03;;;17.20;1.00;;;;;;5138646;27;20185;-81
2022/07/27 07:45:30;;;;;;;3.50;1.20;;;17.30;1.00;;;;;;5156892;27;20175;-81
2022/07/27 07:47:56;;;;;;;5.97;1.80;;;17.30;1.00;;;;;;5157338;27;20185;-81
2022/07/27 07:50:23;;;;;;;5.20;1.10;;;17.30;1.00;;;;;;5156778;27;20184;-81
2022/07/27 07:52:50;;;;;;;4.57;1.60;;;17.40;1.00;;;;;;5156230;27;20259;-81
2022/07/27 07:55:19;;;;;;;5.43;1.20;;;17.50;1.00;;;;;;5138395;27;20183;-81
2022/07/27 07:57:45;;;;;;;3.33;1.30;;;17.60;1.00;;;;;;5136688;27;20185;-81
2022/07/27 08:00:11;;;;;;;6.00;1.70;;;17.60;1.00;;;;;;5137681;27;20179;-81
2022/07/27 08:02:51;;;;;;;11.70;1.87;;;17.60;1.00;;;;;;5137752;27;20640;-81
2022/07/27 08:05:18;;;;;;;3.57;1.10;;;17.80;1.00;;;;;;5156341;27;20696;-82
2022/07/27 08:07:44;;;;;;;4.97;1.33;;;17.80;1.00;;;;;;5138198;27;20226;-81
2022/07/27 08:10:12;;;;;;;5.83;1.20;;;17.70;1.00;;;;;;5156751;27;20162;-81
2022/07/27 08:12:41;;;;;;;5.07;1.20;;;17.70;1.00;;;;;;5155370;27;20545;-81
2022/07/27 08:15:08;;;;;;;3.60;1.40;;;17.70;1.00;;;;;;5156002;27;20176;-81
2022/07/27 08:17:34;;;;;;;5.87;1.30;;;17.70;1.00;;;;;;5137739;27;20660;-80
2022/07/27 08:20:00;;;;;;;2.87;0.97;;;17.70;1.00;;;;;;5156514;27;20182;-80
2022/07/27 08:22:26;;;;;;;1.93;1.00;;;17.80;1.00;;;;;;5162606;27;20237;-80
2022/07/27 08:24:52;;;;;;;4.30;1.00;;;17.70;1.00;;;;;;5162089;27;20154;-80
2022/07/27 08:27:19;;;;;;;7.77;1.20;;;17.60;1.00;;;;;;5175241;27;20169;-80
2022/07/27 08:29:48;;;;;;;7.80;1.20;;;17.70;1.00;;;;;;5146500;27;20174;-80
2022/07/27 08:32:14;;;;;;;2.47;1.10;;;17.60;1.00;;;;;;5161992;27;20170;-82
2022/07/27 08:34:40;;;;;;;3.70;1.20;;;17.70;1.00;;;;;;5142518;27;20523;-81
2022/07/27 08:37:06;;;;;;;1.67;0.93;;;17.80;1.00;;;;;;5163546;27;20166;-80
2022/07/27 08:39:32;;;;;;;3.23;1.10;;;17.90;1.00;;;;;;5162265;27;20166;-81
2022/07/27 08:42:03;;;;;;;5.70;1.30;;;17.90;1.00;;;;;;5169653;27;20181;-81
2022/07/27 08:44:29;;;;;;;5.90;1.50;;;18.20;1.00;;;;;;5163190;27;20186;-81
2022/07/27 08:46:56;;;;;;;4.40;1.20;;;18.40;1.00;;;;;;5164999;27;20181;-81
2022/07/27 08:49:22;;;;;;;2.50;0.87;;;18.40;99.90;;;;;;5173851;27;20185;-80
2022/07/27 08:51:58;;;;;;;5.37;1.03;;;18.50;99.90;;;;;;5169561;27;20169;-80
2022/07/27 08:54:25;;;;;;;4.03;0.80;;;18.50;99.90;;;;;;5143513;27;20184;-81
2022/07/27 08:56:51;;;;;;;1.87;0.87;;;18.60;1.00;;;;;;5161015;27;20218;-80
2022/07/27 08:59:17;;;;;;;2.00;0.90;;;18.70;1.00;;;;;;5160268;27;20563;-81
2022/07/27 09:01:43;;;;;;;3.40;1.13;;;18.60;41.50;;;;;;5140988;27;20234;-79
2022/07/27 09:04:10;;;;;;;1.83;0.80;;;18.70;99.90;;;;;;5140958;27;20173;-80
2022/07/27 09:06:48;;;;;;;2.10;1.00;;;18.80;99.90;;;;;;5159825;27;20167;-79
2022/07/27 09:09:15;;;;;;;2.40;0.93;;;18.80;99.90;;;;;;5159800;27;20173;-81
2022/07/27 09:11:41;;;;;;;2.33;1.00;;;18.80;1.00;;;;;;5158802;27;20223;-82
2022/07/27 09:14:10;;;;;;;3.13;1.10;;;18.80;1.00;;;;;;5158638;27;20208;-80
2022/07/27 09:16:36;;;;;;;2.40;1.07;;;19.00;1.00;;;;;;5159971;27;20194;-81
2022/07/27 09:19:06;;;;;;;4.40;1.00;;;19.10;1.00;;;;;;5136379;27;21715;-80
2022/07/27 09:21:35;;;;;;;2.77;1.20;;;19.10;1.00;;;;;;5109624;28;20192;-81
2022/07/27 09:24:12;;;;;;;3.73;1.50;;;19.20;1.00;;;;;;5118311;28;20179;-81
2022/07/27 09:26:39;;;;;;;3.73;1.20;;;19.00;99.90;;;;;;5099957;28;20183;-81
2022/07/27 09:29:09;;;;;;;5.63;1.50;;;19.00;99.90;;;;;;5131023;28;20167;-82
2022/07/27 09:31:50;;;;;;;4.27;1.37;;;19.10;99.90;;;;;;5135403;28;20244;-81
2022/07/27 09:34:31;;;;;;;4.23;1.63;;;18.90;99.90;;;;;;5105517;28;20206;-81
2022/07/27 09:36:58;;;;;;;5.97;2.10;;;18.60;99.90;;;;;;5129377;28;20174;-80
2022/07/27 09:39:26;;;;;;;5.13;1.33;;;18.60;1.00;;;;;;5138239;28;20620;-81
2022/07/27 09:41:53;;;;;;;4.93;1.30;;;18.70;99.90;;;;;;5119312;27;20255;-80
2022/07/27 09:44:32;;;;;;;3.10;0.93;;;18.70;99.90;;;;;;5132135;28;20186;-80
2022/07/27 09:46:58;;;;;;;2.97;0.90;;;18.80;99.90;;;;;;5131673;28;20186;-81
2022/07/27 09:49:30;;;;;;;3.27;1.17;;;18.90;99.90;;;;;;5139682;28;20200;-81
2022/07/27 09:51:59;;;;;;;3.87;2.03;;;18.90;15.20;;;;;;5132691;28;20276;-82
2022/07/27 09:55:20;;;;;;;2.83;0.90;;;18.90;99.90;;;;;;5124498;28;20171;-81
2022/07/27 09:58:04;;;;;;;2.90;1.27;;;18.80;99.90;;;;;;5120573;28;20612;-81
2022/07/27 10:00:29;;;;;;;3.13;1.20;;;19.00;99.90;;;;;;5118090;28;20163;-80
2022/07/27 10:02:55;;;;;;;3.60;0.93;;;19.00;99.90;;;;;;5116772;28;20171;-82
2022/07/27 10:05:22;;;;;;;4.47;1.20;;;19.10;99.90;;;;;;5121243;27;20511;-82
2022/07/27 10:07:50;;;;;;;4.97;1.10;;;19.30;99.90;;;;;;5145707;27;20179;-82
2022/07/27 10:10:16;;;;;;;2.33;1.23;;;19.50;99.90;;;;;;5119161;27;20178;-81
2022/07/27 10:12:43;;;;;;;3.80;1.30;;;19.30;99.90;;;;;;5119273;27;20543;-81
2022/07/27 10:15:10;;;;;;;4.00;1.23;;;19.30;99.90;;;;;;5137860;27;20159;-82
2022/07/27 10:17:37;;;;;;;4.90;1.07;;;19.20;99.90;;;;;;5126190;27;20262;-81
2022/07/27 10:20:07;;;;;;;3.57;1.20;;;19.20;99.90;;;;;;5098718;28;20196;-80
2022/07/27 10:22:53;;;;;;;3.40;1.20;;;19.30;99.90;;;;;;5084762;27;20176;-81
2022/07/27 10:25:21;;;;;;;3.87;1.13;;;19.50;29.00;;;;;;5135309;27;20198;-82
2022/07/27 10:28:16;;;;;;;3.43;1.33;;;19.70;1.00;;;;;;5119910;27;20639;-80
2022/07/27 10:30:43;;;;;;;3.07;1.20;;;19.70;1.00;;;;;;5137725;27;20175;-81
2022/07/27 10:33:37;;;;;;;3.47;1.10;;;19.60;1.00;;;;;;5099689;28;20683;-81
2022/07/27 10:36:03;;;;;;;3.00;1.10;;;19.30;1.00;;;;;;5117781;27;20250;-80
2022/07/27 10:38:45;;;;;;;4.20;1.27;;;19.50;1.00;;;;;;5116936;28;20173;-80
2022/07/27 10:41:25;;;;;;;2.77;1.13;;;19.80;1.00;;;;;;5116313;28;20171;-81
2022/07/27 10:44:17;;;;;;;2.90;0.97;;;19.90;1.00;;;;;;5131940;27;20198;-81
2022/07/27 10:46:46;;;;;;;2.93;1.17;;;20.10;1.00;;;;;;5125823;27;20622;-81
2022/07/27 10:49:19;;;;;;;2.87;1.00;;;20.20;99.90;;;;;;5116524;27;20534;-80
2022/07/27 10:51:45;;;;;;;3.20;1.10;;;20.20;99.90;;;;;;5130034;27;20203;-80
2022/07/27 10:54:22;;;;;;;2.70;1.50;;;20.30;99.90;;;;;;5133582;27;20204;-81
2022/07/27 10:56:50;;;;;;;5.00;1.50;;;20.40;26.70;;;;;;5134079;27;20186;-81
2022/07/27 10:59:42;;;;;;;2.67;1.13;;;20.50;1.00;;;;;;5119578;27;20253;-80
2022/07/27 11:02:10;;;;;;;3.43;1.20;;;20.60;1.00;;;;;;5124655;27;20160;-80
2022/07/27 11:04:48;;;;;;;4.07;1.43;;;20.70;99.90;;;;;;5142838;27;20185;-80
2022/07/27 11:07:24;;;;;;;2.83;1.37;;;20.90;1.00;;;;;;5141688;27;20177;-81
2022/07/27 11:09:51;;;;;;;4.13;1.30;;;21.30;1.00;;;;;;5121258;27;20253;-81
2022/07/27 11:12:18;;;;;;;2.97;1.50;;;21.20;1.00;;;;;;5129097;27;20190;-81
2022/07/27 11:14:51;;;;;;;3.40;1.50;;;20.90;1.00;;;;;;5131923;27;20272;-81
2022/07/27 11:17:25;;;;;;;2.73;1.60;;;20.70;1.00;;;;;;5122165;27;20303;-80
2022/07/27 11:19:55;;;;;;;3.60;1.73;;;20.80;1.00;;;;;;5116538;27;20719;-82
2022/07/27 11:22:42;;;;;;;3.77;1.70;;;20.90;1.00;;;;;;5097736;28;20171;-83
2022/07/27 11:25:08;;;;;;;3.00;1.70;;;20.80;1.00;;;;;;5121060;27;20265;-82
2022/07/27 11:27:48;;;;;;;5.20;1.80;;;20.70;99.90;;;;;;5108303;27;20212;-81
2022/07/27 11:30:25;;;;;;;5.20;1.70;;;20.50;99.90;;;;;;5116176;27;20189;-81
2022/07/27 11:32:51;;;;;;;3.73;1.60;;;20.70;99.90;;;;;;5133333;27;20600;-82
2022/07/27 11:35:16;;;;;;;2.27;1.57;;;20.60;99.90;;;;;;5112164;28;20735;-81
2022/07/27 11:38:00;;;;;;;3.17;1.70;;;20.70;1.00;;;;;;5118700;27;20178;-81
2022/07/27 11:40:27;;;;;;;6.80;1.40;;;20.50;1.00;;;;;;5117318;27;20183;-80
2022/07/27 11:42:53;;;;;;;2.60;1.30;;;20.20;99.90;;;;;;5148064;27;20177;-81
2022/07/27 11:45:29;;;;;;;2.57;1.30;;;20.10;1.00;;;;;;5156112;27;20203;-81
2022/07/27 11:47:56;;;;;;;3.20;1.40;;;20.00;99.90;;;;;;5136581;27;20186;-81
2022/07/27 11:50:22;;;;;;;5.87;1.40;;;20.00;99.90;;;;;;5124176;28;20184;-81
2022/07/27 11:52:57;;;;;;;2.53;1.40;;;19.90;57.70;;;;;;5125955;27;20230;-83
2022/07/27 11:55:24;;;;;;;3.63;1.47;;;20.00;99.90;;;;;;5120585;28;20643;-81
2022/07/27 11:57:50;;;;;;;3.80;1.40;;;20.10;1.00;;;;;;5116277;28;20186;-81
2022/07/27 12:00:15;;;;;;;3.50;1.50;;;20.00;99.90;;;;;;5100683;28;20196;-81
2022/07/27 12:02:49;;;;;;;4.80;1.63;;;20.10;1.00;;;;;;5127694;27;20219;-82
2022/07/27 12:05:15;;;;;;;4.13;1.70;;;20.10;99.90;;;;;;5110102;28;20237;-81
2022/07/27 12:07:44;;;;;;;5.40;2.00;;;20.20;1.00;;;;;;5143313;27;20167;-81
2022/07/27 12:10:10;;;;;;;3.17;1.30;;;20.10;99.90;;;;;;5131458;28;20180;-82
2022/07/27 12:12:36;;;;;;;4.57;1.50;;;20.00;7.50;;;;;;5143922;27;20216;-82
2022/07/27 12:15:19;;;;;;;1.87;1.13;;;20.00;1.00;;;;;;5116948;28;20182;-84
2022/07/27 12:17:47;;;;;;;5.33;1.70;;;20.10;1.00;;;;;;5112733;28;20210;-82
2022/07/27 12:20:20;;;;;;;2.60;1.20;;;20.50;1.00;;;;;;5127178;28;20213;-83
2022/07/27 12:22:51;;;;;;;2.13;1.20;;;20.90;99.90;;;;;;5100458;28;20636;-83
2022/07/27 12:25:17;;;;;;;2.93;1.10;;;21.20;99.90;;;;;;5116109;28;20163;-82
2022/07/27 12:28:01;;;;;;;4.40;1.40;;;21.40;1.00;;;;;;5117504;28;20178;-82
2022/07/27 12:30:31;;;;;;;2.20;1.07;;;21.60;99.90;;;;;;5115248;28;20156;-83
2022/07/27 12:32:57;;;;;;;4.73;1.23;;;21.70;99.90;;;;;;5096241;28;20260;-81
2022/07/27 12:35:25;;;;;;;2.60;1.30;;;21.90;99.90;;;;;;5120911;28;20411;-82
2022/07/27 12:38:06;;;;;;;1.77;1.10;;;22.00;23.30;;;;;;5119641;28;20163;-81
2022/07/27 12:40:41;;;;;;;4.80;1.70;;;21.60;99.90;;;;;;5129278;28;20283;-82
2022/07/27 12:43:09;;;;;;;5.13;1.30;;;20.90;99.90;;;;;;5099503;28;20172;-82
2022/07/27 12:45:41;;;;;;;2.50;1.00;;;20.90;99.90;;;;;;5096678;28;20250;-82
2022/07/27 12:48:15;;;;;;;2.17;1.30;;;20.80;99.90;;;;;;5097155;28;20196;-81
2022/07/27 12:50:43;;;;;;;3.23;1.30;;;20.70;99.90;;;;;;5114362;28;20194;-82
2022/07/27 12:53:12;;;;;;;3.00;1.17;;;20.70;99.90;;;;;;5114026;28;20720;-82
2022/07/27 12:55:39;;;;;;;3.20;1.20;;;20.70;1.00;;;;;;5096024;28;20166;-82
2022/07/27 12:58:08;;;;;;;2.90;1.10;;;20.80;28.80;;;;;;5095330;28;20585;-83
2022/07/27 13:00:35;;;;;;;2.80;1.10;;;20.90;99.90;;;;;;5095875;28;20166;-82
2022/07/27 13:03:02;;;;;;;1.97;1.00;;;21.20;99.90;;;;;;5113996;28;20174;-82
2022/07/27 13:05:28;;;;;;;4.20;1.10;;;21.40;1.00;;;;;;5113232;28;20197;-81
2022/07/27 13:07:54;;;;;;;3.23;1.13;;;21.60;1.00;;;;;;5116956;28;20175;-81
2022/07/27 13:10:20;;;;;;;4.70;1.43;;;21.60;15.90;;;;;;5099557;28;20606;-81